Time;durP1;ratioP1;P1;durP2;ratioP2;P2;SDS_P1;SDS_P2;PMS_P1;PMS_P2;Temp;Humidity;BMP_temperature;BMP_pressure;BME280_temperature;BME280_humidity;BME280_pressure;Samples;Min_cycle;Max_cycle;Signal;HPM_P1;HPM_P2
2022/05/31 07:46:13;;;;;;;6.85;3.25;;;14.10;99.90;;;;;;5062262;28;20067;-89
2022/05/31 07:48:40;;;;;;;4.72;3.00;;;14.10;99.90;;;;;;5048599;28;20041;-90
2022/05/31 07:51:07;;;;;;;5.97;3.17;;;14.20;99.90;;;;;;5048303;28;20029;-91
2022/05/31 07:53:34;;;;;;;6.05;3.17;;;14.30;99.90;;;;;;5045422;28;20040;-90
2022/05/31 07:56:06;;;;;;;6.88;3.47;;;14.40;99.90;;;;;;5029830;28;20079;-93
2022/05/31 07:58:34;;;;;;;4.73;3.13;;;14.40;99.90;;;;;;5050883;28;20040;-90
2022/05/31 08:01:02;;;;;;;5.10;3.65;;;14.50;99.90;;;;;;5050274;28;20485;-90
2022/05/31 08:03:30;;;;;;;6.07;4.13;;;14.60;99.90;;;;;;5052137;28;20029;-91
2022/05/31 08:05:57;;;;;;;5.90;3.85;;;14.60;99.90;;;;;;5050975;28;20070;-90
2022/05/31 08:08:22;;;;;;;4.63;3.25;;;14.60;99.90;;;;;;5050326;28;20033;-90
2022/05/31 08:10:48;;;;;;;5.63;3.60;;;14.70;99.90;;;;;;5050379;28;20043;-88
2022/05/31 08:13:14;;;;;;;4.13;3.15;;;14.80;99.90;;;;;;5050315;28;20028;-89
2022/05/31 08:15:41;;;;;;;5.85;3.58;;;14.90;99.90;;;;;;5050582;28;20047;-89
2022/05/31 08:18:07;;;;;;;5.85;4.15;;;15.00;99.90;;;;;;5050811;28;20044;-88
2022/05/31 08:20:34;;;;;;;6.40;4.45;;;15.00;99.90;;;;;;5068451;28;20057;-89
2022/05/31 08:23:02;;;;;;;4.72;3.47;;;15.00;99.90;;;;;;5048976;28;20028;-93
2022/05/31 08:25:27;;;;;;;4.57;2.92;;;15.00;99.90;;;;;;5040999;28;20423;-92
2022/05/31 08:27:53;;;;;;;6.93;3.95;;;15.00;99.90;;;;;;5041108;28;20029;-90
2022/05/31 08:30:19;;;;;;;7.38;3.78;;;15.10;99.90;;;;;;5060708;28;20040;-92
2022/05/31 08:32:44;;;;;;;7.38;3.00;;;15.20;99.90;;;;;;5062840;28;20021;-91
2022/05/31 08:35:12;;;;;;;5.68;2.83;;;15.40;99.90;;;;;;5068857;28;20021;-92
2022/05/31 08:37:38;;;;;;;5.28;3.40;;;15.50;99.90;;;;;;5055467;28;20157;-92
2022/05/31 08:40:05;;;;;;;4.55;2.83;;;15.50;99.90;;;;;;5074529;28;20055;-91
2022/05/31 08:42:51;;;;;;;5.40;3.22;;;15.60;99.90;;;;;;5058338;28;20029;-91
2022/05/31 08:45:45;;;;;;;3.63;2.63;;;15.70;99.90;;;;;;5053696;28;20061;-91
2022/05/31 08:48:26;;;;;;;5.72;3.08;;;15.90;99.90;;;;;;5050675;28;20036;-93
2022/05/31 08:56:58;;;;;;;4.25;2.97;;;16.50;99.90;;;;;;5063736;28;20079;-92
2022/05/31 08:59:45;;;;;;;6.77;3.10;;;16.60;99.90;;;;;;5062786;28;20486;-93
2022/05/31 09:02:37;;;;;;;4.60;3.13;;;16.60;99.90;;;;;;5043176;28;20029;-94
2022/05/31 09:05:14;;;;;;;5.55;3.60;;;16.70;99.90;;;;;;5057627;28;20033;-94
2022/05/31 09:07:59;;;;;;;4.25;2.92;;;16.70;99.90;;;;;;5057413;28;20033;-93
2022/05/31 09:10:31;;;;;;;5.25;2.80;;;16.70;99.90;;;;;;5060048;28;20029;-95
2022/05/31 09:13:13;;;;;;;4.40;2.58;;;16.70;99.90;;;;;;5072628;28;20040;-96
2022/05/31 09:15:54;;;;;;;5.32;2.50;;;16.60;99.90;;;;;;5079326;28;20028;-93
2022/05/31 09:18:38;;;;;;;5.80;3.58;;;16.60;99.90;;;;;;5078147;28;20025;-91
2022/05/31 09:21:12;;;;;;;7.57;4.95;;;16.70;99.90;;;;;;5077780;28;20104;-95
2022/05/31 09:23:38;;;;;;;6.18;3.90;;;16.70;99.90;;;;;;5079514;28;20025;-93
2022/05/31 09:26:10;;;;;;;5.15;3.38;;;16.80;99.90;;;;;;5079163;28;20077;-92
2022/05/31 09:29:03;;;;;;;5.28;3.70;;;17.00;99.90;;;;;;5079098;28;20093;-93
2022/05/31 09:32:09;;;;;;;4.90;3.13;;;17.40;99.90;;;;;;5073002;28;20033;-93
2022/05/31 09:34:59;;;;;;;6.95;5.30;;;18.30;99.90;;;;;;5074476;28;20037;-94
2022/05/31 09:37:59;;;;;;;5.97;3.17;;;18.90;99.90;;;;;;5075774;28;20032;-95
2022/05/31 09:40:50;;;;;;;8.13;2.90;;;19.60;99.90;;;;;;5077449;28;20052;-91
2022/05/31 09:43:26;;;;;;;3.97;2.40;;;20.70;99.90;;;;;;5060407;28;20024;-91
2022/05/31 09:45:59;;;;;;;6.07;3.15;;;21.50;99.40;;;;;;5076918;28;20036;-90
2022/05/31 09:48:27;;;;;;;5.15;2.92;;;22.30;98.00;;;;;;5074942;28;20033;-89
2022/05/31 09:51:12;;;;;;;5.38;3.30;;;22.80;97.00;;;;;;5073208;28;20040;-87
2022/05/31 09:59:25;;;;;;;3.13;2.13;;;24.10;94.60;;;;;;5074344;28;20060;-89
2022/05/31 10:01:51;;;;;;;4.85;2.60;;;24.00;94.00;;;;;;5058221;28;20029;-89
2022/05/31 10:04:20;;;;;;;3.50;2.08;;;23.60;92.70;;;;;;5053954;28;20067;-89
2022/05/31 10:06:57;;;;;;;3.88;1.77;;;22.90;92.90;;;;;;5059474;28;20037;-92
2022/05/31 10:09:35;;;;;;;3.05;1.35;;;22.80;93.10;;;;;;5052729;28;20037;-87
2022/05/31 10:12:24;;;;;;;2.00;1.15;;;23.30;93.30;;;;;;5052136;28;20144;-91
2022/05/31 10:14:54;;;;;;;2.78;1.33;;;24.10;93.10;;;;;;5048724;28;20045;-92
2022/05/31 10:17:43;;;;;;;2.88;1.73;;;24.70;92.10;;;;;;5056458;28;20044;-90
2022/05/31 10:20:20;;;;;;;3.47;1.58;;;25.20;90.50;;;;;;5034962;28;20053;-89
2022/05/31 10:22:54;;;;;;;4.53;1.50;;;25.40;88.30;;;;;;5027156;28;20025;-90
2022/05/31 10:25:25;;;;;;;2.17;1.00;;;25.20;86.40;;;;;;5034892;28;20037;-89
2022/05/31 10:28:33;;;;;;;4.15;1.50;;;25.00;87.40;;;;;;5054131;28;20041;-88
2022/05/31 10:31:20;;;;;;;2.97;1.40;;;25.20;84.40;;;;;;5056775;28;20120;-94
2022/05/31 10:34:17;;;;;;;4.50;1.92;;;25.30;84.40;;;;;;5028534;28;20037;-95
2022/05/31 20:04:49;;;;;;;4.28;3.17;;;12.80;99.90;;;;;;5047705;28;20053;-90
2022/05/31 20:07:21;;;;;;;4.72;3.40;;;12.80;99.90;;;;;;5023333;28;20129;-90
2022/05/31 20:10:02;;;;;;;4.53;3.40;;;12.90;99.90;;;;;;5015588;28;20059;-91
2022/05/31 20:12:32;;;;;;;4.68;3.30;;;12.90;99.90;;;;;;5005087;28;20047;-88
2022/05/31 20:14:58;;;;;;;4.50;3.47;;;12.90;99.90;;;;;;5036597;28;20036;-90
2022/05/31 20:17:24;;;;;;;4.20;3.33;;;12.90;99.90;;;;;;5037978;28;20037;-89
2022/05/31 20:19:51;;;;;;;5.05;3.60;;;12.90;99.90;;;;;;5022647;28;20038;-90
2022/05/31 20:22:25;;;;;;;4.72;3.72;;;12.90;99.90;;;;;;5035129;28;20124;-92
2022/05/31 20:24:52;;;;;;;;;;;12.90;99.90;;;;;;5019248;28;20119;-90
2022/05/31 20:27:18;;;;;;;3.63;3.03;;;12.80;99.90;;;;;;5031585;28;19911;-90
2022/05/31 20:29:44;;;;;;;5.55;3.78;;;12.80;99.90;;;;;;5038562;28;20100;-92
2022/05/31 20:32:10;;;;;;;4.80;4.18;;;12.80;99.90;;;;;;5037410;28;20029;-90
2022/05/31 20:34:36;;;;;;;4.75;3.95;;;12.80;99.90;;;;;;5039788;28;20095;-91
2022/05/31 20:37:03;;;;;;;5.95;4.13;;;12.80;99.90;;;;;;5034813;28;20096;-92
2022/05/31 20:39:30;;;;;;;4.93;3.90;;;12.80;99.90;;;;;;5055438;28;20078;-90
2022/05/31 20:42:00;;;;;;;4.60;3.88;;;12.80;99.90;;;;;;5061814;28;20009;-88
2022/05/31 20:44:27;;;;;;;5.55;3.78;;;12.80;99.90;;;;;;5062229;28;20021;-90
2022/05/31 20:46:54;;;;;;;6.13;4.50;;;12.80;99.90;;;;;;5061424;28;20059;-91
2022/05/31 20:49:20;;;;;;;5.75;4.72;;;12.80;99.90;;;;;;5078107;28;20060;-91
2022/05/31 20:51:46;;;;;;;5.82;4.85;;;12.90;99.90;;;;;;5061310;28;20105;-90
2022/05/31 20:54:21;;;;;;;5.57;4.82;;;12.90;99.90;;;;;;5061158;28;20036;-88
2022/05/31 20:56:47;;;;;;;7.32;6.10;;;12.90;99.90;;;;;;5079801;28;20047;-90
2022/05/31 20:59:13;;;;;;;6.18;5.10;;;12.90;99.90;;;;;;5080225;28;20037;-87
2022/05/31 21:01:39;;;;;;;6.53;5.60;;;12.90;99.90;;;;;;5078006;28;20047;-90
2022/05/31 21:04:06;;;;;;;6.13;5.20;;;12.90;99.90;;;;;;5064542;28;20097;-90
2022/05/31 21:06:34;;;;;;;6.35;5.53;;;12.90;99.90;;;;;;5050888;28;20037;-90
2022/05/31 21:09:05;;;;;;;6.63;5.30;;;12.90;99.90;;;;;;5049958;28;20017;-91
2022/05/31 21:11:30;;;;;;;6.03;5.15;;;12.90;99.90;;;;;;5054309;28;20104;-91
2022/05/31 21:13:57;;;;;;;7.35;5.13;;;12.80;99.90;;;;;;5050205;28;20052;-91
2022/05/31 21:16:23;;;;;;;6.65;5.40;;;12.90;99.90;;;;;;5051252;28;20042;-91
2022/05/31 21:18:51;;;;;;;6.65;5.75;;;12.90;99.90;;;;;;5051898;28;20060;-91
2022/05/31 21:21:26;;;;;;;6.75;5.95;;;12.80;99.90;;;;;;5038650;28;20065;-89
2022/05/31 21:23:52;;;;;;;7.53;6.35;;;12.80;99.90;;;;;;5033190;28;20120;-90
2022/05/31 21:26:21;;;;;;;7.20;5.82;;;12.80;99.90;;;;;;5036648;28;20063;-91
2022/05/31 21:28:51;;;;;;;6.28;5.20;;;12.80;99.90;;;;;;5037662;28;20044;-91
2022/05/31 21:31:16;;;;;;;6.43;5.43;;;12.80;99.90;;;;;;5036342;28;20033;-91
2022/05/31 21:33:42;;;;;;;6.93;5.93;;;12.70;99.90;;;;;;5036780;28;20045;-90
2022/05/31 21:36:08;;;;;;;6.65;5.95;;;12.70;99.90;;;;;;5034576;28;20029;-89
2022/05/31 21:41:07;;;;;;;6.70;5.63;;;12.70;99.90;;;;;;5033079;28;20033;-90
2022/05/31 21:41:20;;;;;;;6.22;5.60;;;12.70;99.90;;;;;;5059209;28;20052;-90
2022/05/31 21:43:47;;;;;;;6.10;5.40;;;12.70;99.90;;;;;;5035507;28;20025;-91
2022/05/31 21:46:14;;;;;;;6.43;5.57;;;12.70;99.90;;;;;;5031130;28;20029;-91
2022/05/31 21:48:40;;;;;;;6.65;5.63;;;12.70;99.90;;;;;;5042307;28;20163;-90
2022/05/31 21:51:07;;;;;;;8.10;7.07;;;12.70;99.90;;;;;;5040629;28;20048;-90
2022/05/31 21:53:36;;;;;;;6.72;6.03;;;12.70;99.90;;;;;;5046772;28;20025;-90
2022/05/31 21:56:06;;;;;;;7.13;6.10;;;12.70;99.90;;;;;;5040659;28;20033;-92
2022/05/31 21:58:32;;;;;;;8.98;6.45;;;12.70;99.90;;;;;;5038089;28;20032;-90
2022/05/31 22:01:05;;;;;;;7.45;6.60;;;12.60;99.90;;;;;;5037443;28;20055;-91
2022/05/31 22:03:31;;;;;;;8.00;7.18;;;12.60;99.90;;;;;;5035930;28;20056;-91
2022/05/31 22:05:59;;;;;;;7.95;6.35;;;12.60;99.90;;;;;;5033687;28;20063;-90
2022/05/31 22:08:25;;;;;;;8.57;6.38;;;12.60;99.90;;;;;;5022032;28;20029;-90
2022/05/31 22:10:51;;;;;;;7.80;6.93;;;12.50;99.90;;;;;;5033162;28;20127;-90
2022/05/31 22:13:19;;;;;;;7.85;6.97;;;12.60;99.90;;;;;;5033847;28;20601;-91
2022/05/31 22:15:46;;;;;;;8.02;7.15;;;12.60;99.90;;;;;;5031866;28;20033;-91
2022/05/31 22:18:12;;;;;;;8.88;7.65;;;12.60;99.90;;;;;;5031838;28;20391;-90
2022/05/31 22:20:38;;;;;;;8.27;7.35;;;12.60;99.90;;;;;;5035199;28;20033;-92
2022/05/31 22:23:05;;;;;;;8.88;7.97;;;12.60;99.90;;;;;;5034885;28;20029;-91
2022/05/31 22:25:32;;;;;;;8.48;7.57;;;12.60;99.90;;;;;;5034764;28;20044;-91
2022/05/31 22:27:58;;;;;;;10.10;7.80;;;12.60;99.90;;;;;;5034796;28;20382;-91
2022/05/31 22:30:26;;;;;;;11.07;9.90;;;12.50;99.90;;;;;;5035216;28;20035;-92
2022/05/31 22:32:52;;;;;;;10.85;9.75;;;12.50;99.90;;;;;;5034961;28;20041;-90
2022/05/31 22:35:19;;;;;;;11.60;10.50;;;12.50;99.90;;;;;;5035062;28;20095;-90
2022/05/31 22:37:48;;;;;;;13.38;11.52;;;12.40;99.90;;;;;;5035351;28;20037;-91
2022/05/31 22:40:19;;;;;;;11.77;10.57;;;12.30;99.90;;;;;;5032301;28;20719;-91
2022/05/31 22:42:47;;;;;;;11.05;9.38;;;12.30;99.90;;;;;;5031711;28;20029;-89
2022/05/31 22:45:16;;;;;;;12.02;10.75;;;12.30;99.90;;;;;;5033132;28;20118;-90
2022/05/31 22:47:44;;;;;;;11.57;10.38;;;12.20;99.90;;;;;;5035024;28;20032;-89
2022/05/31 22:50:15;;;;;;;11.20;10.00;;;12.20;99.90;;;;;;5034836;28;20033;-89
2022/05/31 22:52:41;;;;;;;10.23;9.18;;;12.10;99.90;;;;;;5021897;28;20059;-89
2022/05/31 22:55:08;;;;;;;10.23;9.23;;;12.20;99.90;;;;;;5035124;28;20041;-89
2022/05/31 22:57:34;;;;;;;11.65;10.13;;;12.10;99.90;;;;;;5035846;28;20025;-91
2022/05/31 23:00:07;;;;;;;11.30;9.13;;;12.10;99.90;;;;;;5036108;28;20416;-90
2022/05/31 23:02:33;;;;;;;10.60;9.50;;;12.10;99.90;;;;;;5015938;28;20033;-90
2022/05/31 23:04:59;;;;;;;11.30;10.13;;;12.10;99.90;;;;;;5031454;28;20103;-90
2022/05/31 23:07:26;;;;;;;10.32;9.23;;;12.10;99.90;;;;;;5035433;28;20029;-91
2022/05/31 23:09:52;;;;;;;10.23;9.15;;;12.00;99.90;;;;;;5035440;28;20044;-90
2022/05/31 23:12:18;;;;;;;9.52;8.35;;;12.00;99.90;;;;;;5034865;28;20038;-91
2022/05/31 23:14:44;;;;;;;9.35;7.78;;;12.10;99.90;;;;;;5034975;28;20588;-90
2022/05/31 23:17:12;;;;;;;8.65;7.75;;;12.00;99.90;;;;;;5035608;28;20051;-90
2022/05/31 23:19:39;;;;;;;9.88;8.88;;;12.00;99.90;;;;;;5036229;28;20033;-90
2022/05/31 23:24:53;;;;;;;9.93;8.93;;;11.90;99.90;;;;;;5056543;28;20045;-91
2022/05/31 23:27:20;;;;;;;9.10;8.20;;;11.80;99.90;;;;;;5039696;28;20116;-91
2022/05/31 23:29:46;;;;;;;10.48;9.45;;;11.70;99.90;;;;;;5040009;28;20033;-92
2022/05/31 23:32:12;;;;;;;11.73;10.02;;;11.70;99.90;;;;;;5040386;28;20029;-90
2022/05/31 23:34:49;;;;;;;10.10;9.00;;;11.60;99.90;;;;;;5042682;28;20028;-90
2022/05/31 23:37:18;;;;;;;10.65;9.55;;;11.60;99.90;;;;;;5041695;28;20056;-88
2022/05/31 23:39:43;;;;;;;11.45;10.30;;;11.50;99.90;;;;;;5041959;28;20110;-91
2022/05/31 23:42:09;;;;;;;10.57;9.57;;;11.50;99.90;;;;;;5040279;28;20029;-90
2022/05/31 23:44:36;;;;;;;11.32;10.10;;;11.40;99.90;;;;;;5041491;28;20041;-92
2022/05/31 23:47:02;;;;;;;11.00;9.82;;;11.40;99.90;;;;;;5043501;28;20478;-90
2022/05/31 23:49:29;;;;;;;11.40;10.20;;;11.40;99.90;;;;;;5046069;28;20037;-90
2022/05/31 23:52:00;;;;;;;11.18;10.07;;;11.30;99.90;;;;;;5047614;28;20106;-91
2022/05/31 23:54:26;;;;;;;10.18;9.18;;;11.30;99.90;;;;;;5023803;28;20096;-91
2022/05/31 23:56:55;;;;;;;12.48;10.27;;;11.30;99.90;;;;;;5036957;28;20380;-91
2022/05/31 23:59:22;;;;;;;13.63;12.23;;;11.20;99.90;;;;;;5042189;28;20537;-91
